Time;durP1;ratioP1;P1;durP2;ratioP2;P2;SDS_P1;SDS_P2;PMS_P1;PMS_P2;Temp;Humidity;BMP_temperature;BMP_pressure;BME280_temperature;BME280_humidity;BME280_pressure;Samples;Min_cycle;Max_cycle;Signal;HPM_P1;HPM_P2
2023/01/21 00:00:38;;;;;;;;;;;;;;;-0.56;80.32;101540.00;106281;1288;59265;-68
2023/01/21 00:03:24;;;;;;;;;;;;;;;-0.56;80.28;101535.73;106299;1287;59011;-68
2023/01/21 00:06:10;;;;;;;;;;;;;;;-0.57;80.32;101537.88;106267;1288;74537;-68
2023/01/21 00:08:57;;;;;;;;;;;;;;;-0.59;80.24;101548.45;106206;1288;68507;-68
2023/01/21 00:11:43;;;;;;;;;;;;;;;-0.62;80.23;101551.40;106273;1288;72548;-68
2023/01/21 00:14:29;;;;;;;;;;;;;;;-0.62;80.23;101548.67;106244;1287;59226;-68
2023/01/21 00:17:15;;;;;;;;;;;;;;;-0.64;80.29;101545.69;106236;1286;58855;-68
2023/01/21 00:20:01;;;;;;;;;;;;;;;-0.65;80.33;101535.52;106259;1288;74000;-68
2023/01/21 00:22:47;;;;;;;;;;;;;;;-0.65;80.35;101536.20;106270;1288;68462;-68
2023/01/21 00:25:33;;;;;;;;;;;;;;;-0.64;80.34;101537.58;106228;1288;72920;-68
2023/01/21 00:28:19;;;;;;;;;;;;;;;-0.64;80.31;101539.09;106245;1288;59308;-68
2023/01/21 00:31:05;;;;;;;;;;;;;;;-0.64;80.33;101533.52;106310;1287;59847;-68
2023/01/21 00:33:51;;;;;;;;;;;;;;;-0.65;80.33;101532.97;106300;1288;74388;-68
2023/01/21 00:36:37;;;;;;;;;;;;;;;-0.67;80.36;101536.97;106281;1288;67793;-68
2023/01/21 00:39:23;;;;;;;;;;;;;;;-0.66;80.42;101542.23;106243;1288;71180;-68
2023/01/21 00:42:10;;;;;;;;;;;;;;;-0.65;80.38;101544.99;105668;1292;59115;-68
2023/01/21 00:44:56;;;;;;;;;;;;;;;-0.64;80.32;101549.77;104943;1289;61346;-68
2023/01/21 00:47:43;;;;;;;;;;;;;;;-0.64;80.41;101550.45;104920;1290;74062;-68
2023/01/21 00:50:29;;;;;;;;;;;;;;;-0.63;80.47;101553.36;104954;1289;68993;-68
2023/01/21 00:53:15;;;;;;;;;;;;;;;-0.64;80.51;101562.65;104912;1292;71036;-68
2023/01/21 00:56:03;;;;;;;;;;;;;;;-0.64;80.53;101561.45;104895;1290;61341;-68
2023/01/21 00:58:49;;;;;;;;;;;;;;;-0.64;80.53;101562.80;104932;1289;61411;-68
2023/01/21 01:01:37;;;;;;;;;;;;;;;-0.65;80.53;101566.65;104958;1288;73280;-68
2023/01/21 01:04:23;;;;;;;;;;;;;;;-0.66;80.55;101576.11;104984;1289;67200;-68
2023/01/21 01:07:09;;;;;;;;;;;;;;;-0.66;80.59;101578.64;104989;1288;72483;-68
2023/01/21 01:09:56;;;;;;;;;;;;;;;-0.66;80.67;101585.23;104922;1287;63204;-68
2023/01/21 01:12:42;;;;;;;;;;;;;;;-0.65;80.58;101588.00;104917;1292;64220;-68
2023/01/21 01:15:28;;;;;;;;;;;;;;;-0.64;80.62;101588.22;104853;1288;73713;-68
2023/01/21 01:18:15;;;;;;;;;;;;;;;-0.62;80.65;101588.27;104886;1291;67255;-68
2023/01/21 01:21:02;;;;;;;;;;;;;;;-0.62;80.66;101586.11;104921;1288;71259;-68
2023/01/21 01:23:50;;;;;;;;;;;;;;;-0.60;80.66;101588.73;104897;1289;61480;-68
2023/01/21 01:26:37;;;;;;;;;;;;;;;-0.58;80.58;101587.27;104876;1288;62578;-68
2023/01/21 01:29:23;;;;;;;;;;;;;;;-0.59;80.58;101589.79;104955;1288;73290;-68
2023/01/21 01:32:09;;;;;;;;;;;;;;;-0.58;80.58;101592.21;104948;1288;67286;-68
2023/01/21 01:34:55;;;;;;;;;;;;;;;-0.56;80.63;101590.77;104966;1291;71289;-68
2023/01/21 01:37:41;;;;;;;;;;;;;;;-0.56;80.66;101576.05;104924;1289;61168;-68
2023/01/21 01:40:31;;;;;;;;;;;;;;;-0.55;80.57;101579.30;104963;1291;61347;-68
2023/01/21 01:43:21;;;;;;;;;;;;;;;-0.55;80.61;101579.48;104885;1288;74777;-68
2023/01/21 01:46:07;;;;;;;;;;;;;;;-0.55;80.71;101584.23;104899;1290;69020;-68
2023/01/21 01:49:15;;;;;;;;;;;;;;;-0.53;80.69;101581.60;104856;1289;74059;-68
2023/01/21 01:52:03;;;;;;;;;;;;;;;-0.52;80.67;101578.59;104896;1288;59271;-68
2023/01/21 01:54:52;;;;;;;;;;;;;;;-0.50;80.70;101582.39;104911;1288;61270;-68
2023/01/21 01:57:40;;;;;;;;;;;;;;;-0.49;80.58;101580.73;104935;1288;73256;-68
2023/01/21 02:00:26;;;;;;;;;;;;;;;-0.48;80.64;101579.75;104921;1288;71405;-68
2023/01/21 02:06:18;;;;;;;;;;;;;;;-0.45;80.64;101580.90;104911;1289;61196;-67
2023/01/21 02:09:05;;;;;;;;;;;;;;;-0.44;80.64;101583.66;104830;1294;61133;-68
2023/01/21 02:11:51;;;;;;;;;;;;;;;-0.43;80.65;101586.08;104889;1289;73126;-68
2023/01/21 02:14:41;;;;;;;;;;;;;;;-0.41;80.74;101585.49;104821;1290;67278;-68
2023/01/21 02:17:38;;;;;;;;;;;;;;;-0.39;80.63;101586.08;104873;1292;72003;-68
2023/01/21 02:20:43;;;;;;;;;;;;;;;-0.38;80.71;101585.29;104911;1290;61237;-68
2023/01/21 02:23:48;;;;;;;;;;;;;;;-0.37;80.65;101584.98;104903;1289;61176;-68
2023/01/21 02:26:53;;;;;;;;;;;;;;;-0.35;80.72;101582.02;104913;1289;73377;-68
2023/01/21 02:29:39;;;;;;;;;;;;;;;-0.34;80.57;101580.22;104944;1291;67568;-67
2023/01/21 02:32:44;;;;;;;;;;;;;;;-0.32;80.71;101580.98;104968;1292;72198;-68
2023/01/21 02:35:30;;;;;;;;;;;;;;;-0.31;80.68;101584.08;104983;1289;61404;-68
2023/01/21 02:38:24;;;;;;;;;;;;;;;-0.30;80.68;101586.15;104976;1289;61125;-68
2023/01/21 02:41:18;;;;;;;;;;;;;;;-0.29;80.75;101581.61;104922;1293;73337;-68
2023/01/21 02:44:04;;;;;;;;;;;;;;;-0.28;80.77;101584.88;104927;1289;67202;-68
2023/01/21 02:46:53;;;;;;;;;;;;;;;-0.26;80.73;101583.24;104906;1289;73975;-68
2023/01/21 02:49:49;;;;;;;;;;;;;;;-0.25;80.70;101584.84;104702;1292;61243;-68
2023/01/21 02:52:35;;;;;;;;;;;;;;;-0.25;80.71;101588.05;104921;1290;61384;-68
2023/01/21 02:55:24;;;;;;;;;;;;;;;-0.23;80.78;101586.98;104895;1290;75318;-68
2023/01/21 02:58:14;;;;;;;;;;;;;;;-0.21;80.70;101586.89;104940;1290;69437;-68
2023/01/21 03:01:03;;;;;;;;;;;;;;;-0.20;80.75;101578.79;104874;1288;71737;-68
2023/01/21 03:03:49;;;;;;;;;;;;;;;-0.18;80.74;101574.10;104957;1291;61286;-68
2023/01/21 03:06:41;;;;;;;;;;;;;;;-0.18;80.78;101571.42;104844;1289;61214;-68
2023/01/21 03:09:28;;;;;;;;;;;;;;;-0.16;80.78;101571.16;104941;1290;72894;-68
2023/01/21 03:12:38;;;;;;;;;;;;;;;-0.16;80.73;101568.46;104931;1291;68563;-68
2023/01/21 03:18:53;;;;;;;;;;;;;;;-0.14;80.76;101576.16;104907;1287;62210;-67
2023/01/21 03:21:40;;;;;;;;;;;;;;;-0.14;80.69;101583.80;104892;1288;61276;-68
2023/01/21 03:24:26;;;;;;;;;;;;;;;-0.14;80.78;101585.31;104931;1286;73470;-68
2023/01/21 03:27:15;;;;;;;;;;;;;;;-0.14;80.73;101585.16;104908;1292;67334;-68
2023/01/21 03:30:04;;;;;;;;;;;;;;;-0.14;80.76;101583.30;104900;1288;70204;-68
2023/01/21 03:32:52;;;;;;;;;;;;;;;-0.14;80.79;101584.98;104975;1290;61397;-68
2023/01/21 03:35:40;;;;;;;;;;;;;;;-0.14;80.83;101583.95;105000;1288;61317;-68
2023/01/21 03:38:31;;;;;;;;;;;;;;;-0.15;80.82;101582.74;104994;1291;72258;-68
2023/01/21 03:41:22;;;;;;;;;;;;;;;-0.16;80.80;101586.91;104920;1289;68450;-68
2023/01/21 03:44:09;;;;;;;;;;;;;;;-0.17;80.71;101583.16;104917;1289;71279;-68
2023/01/21 03:47:00;;;;;;;;;;;;;;;-0.18;80.70;101581.06;104902;1288;61286;-67
2023/01/21 03:49:46;;;;;;;;;;;;;;;-0.20;80.65;101574.04;104901;1291;61343;-68
2023/01/21 03:52:33;;;;;;;;;;;;;;;-0.21;80.73;101581.44;104906;1289;74086;-68
2023/01/21 03:55:19;;;;;;;;;;;;;;;-0.22;80.67;101577.19;104970;1288;67290;-68
2023/01/21 03:58:05;;;;;;;;;;;;;;;-0.22;80.69;101578.86;104781;1289;71300;-68
2023/01/21 04:00:51;;;;;;;;;;;;;;;-0.22;80.77;101575.80;104917;1292;61006;-68
2023/01/21 04:03:39;;;;;;;;;;;;;;;-0.23;80.68;101579.16;104963;1287;59407;-68
2023/01/21 04:06:25;;;;;;;;;;;;;;;-0.24;80.75;101579.13;104977;1288;73319;-68
2023/01/21 04:09:11;;;;;;;;;;;;;;;-0.24;80.76;101578.60;104981;1287;71468;-68
2023/01/21 04:11:59;;;;;;;;;;;;;;;-0.24;80.76;101575.89;104887;1292;74030;-68
2023/01/21 04:14:45;;;;;;;;;;;;;;;-0.25;80.76;101581.44;104916;1293;62069;-68
2023/01/21 04:17:31;;;;;;;;;;;;;;;-0.26;80.75;101583.29;104957;1289;61102;-68
2023/01/21 04:20:18;;;;;;;;;;;;;;;-0.26;80.82;101584.13;104906;1288;73249;-68
2023/01/21 04:23:04;;;;;;;;;;;;;;;-0.25;80.81;101582.96;104788;1288;67379;-67
2023/01/21 04:25:51;;;;;;;;;;;;;;;-0.26;80.81;101581.23;104921;1289;71313;-67
2023/01/21 04:28:37;;;;;;;;;;;;;;;-0.26;80.77;101584.10;104908;1288;61275;-68
2023/01/21 04:31:23;;;;;;;;;;;;;;;-0.26;80.79;101577.02;104911;1291;61163;-68
2023/01/21 04:34:09;;;;;;;;;;;;;;;-0.24;80.80;101576.05;104917;1289;75419;-68
2023/01/21 04:36:55;;;;;;;;;;;;;;;-0.24;80.81;101573.86;104826;1288;68600;-68
2023/01/21 04:39:42;;;;;;;;;;;;;;;-0.24;80.81;101574.05;104928;1288;72113;-68
2023/01/21 04:42:28;;;;;;;;;;;;;;;-0.23;80.79;101574.42;104902;1288;61327;-68
2023/01/21 04:45:14;;;;;;;;;;;;;;;-0.23;80.81;101575.26;104928;1290;61826;-68
2023/01/21 04:48:00;;;;;;;;;;;;;;;-0.22;80.90;101572.78;104910;1288;73309;-68
2023/01/21 04:50:46;;;;;;;;;;;;;;;-0.21;80.85;101574.34;104915;1288;67301;-68
2023/01/21 04:53:32;;;;;;;;;;;;;;;-0.20;80.89;101572.16;104826;1290;70389;-67
2023/01/21 04:56:19;;;;;;;;;;;;;;;-0.20;80.91;101579.12;104870;1287;61291;-68
2023/01/21 04:59:05;;;;;;;;;;;;;;;-0.20;80.94;101581.84;104895;1288;61471;-68
2023/01/21 05:01:51;;;;;;;;;;;;;;;-0.19;80.83;101578.98;104938;1289;73388;-68
2023/01/21 05:04:37;;;;;;;;;;;;;;;-0.18;80.90;101575.98;104816;1294;69380;-68
2023/01/21 05:07:23;;;;;;;;;;;;;;;-0.18;80.91;101576.18;104929;1288;72066;-68
2023/01/21 05:10:14;;;;;;;;;;;;;;;-0.17;80.90;101570.45;104912;1290;61042;-68
2023/01/21 05:13:00;;;;;;;;;;;;;;;-0.16;80.87;101561.16;104892;1287;61506;-68
2023/01/21 05:15:46;;;;;;;;;;;;;;;-0.15;80.85;101555.27;104900;1288;76365;-68
2023/01/21 05:18:33;;;;;;;;;;;;;;;-0.15;80.90;101555.80;104871;1289;68156;-68
2023/01/21 05:21:19;;;;;;;;;;;;;;;-0.13;80.95;101550.29;104866;1289;71990;-68
2023/01/21 05:24:05;;;;;;;;;;;;;;;-0.12;80.94;101543.88;104880;1289;61947;-68
2023/01/21 05:26:51;;;;;;;;;;;;;;;-0.12;80.91;101539.65;104888;1288;61259;-67
2023/01/21 05:29:38;;;;;;;;;;;;;;;-0.11;80.93;101549.67;104877;1288;75073;-67
2023/01/21 05:32:24;;;;;;;;;;;;;;;-0.11;80.96;101551.92;104894;1289;68567;-67
2023/01/21 05:35:12;;;;;;;;;;;;;;;-0.09;80.98;101555.37;104908;1288;75408;-67
2023/01/21 05:37:58;;;;;;;;;;;;;;;-0.07;81.01;101550.20;104970;1289;61175;-67
2023/01/21 05:40:44;;;;;;;;;;;;;;;-0.05;80.99;101550.45;104922;1288;61164;-67
2023/01/21 05:43:31;;;;;;;;;;;;;;;-0.04;80.99;101551.20;104882;1288;76501;-67
2023/01/21 05:46:17;;;;;;;;;;;;;;;-0.02;80.99;101549.94;104897;1287;67120;-67
2023/01/21 05:49:03;;;;;;;;;;;;;;;0.00;81.07;101549.63;104860;1287;71174;-67
2023/01/21 05:51:49;;;;;;;;;;;;;;;0.02;81.07;101546.14;104863;1288;59394;-67
2023/01/21 05:54:35;;;;;;;;;;;;;;;0.03;81.08;101547.71;104908;1288;61174;-67
2023/01/21 05:57:21;;;;;;;;;;;;;;;0.06;81.08;101541.54;104881;1288;75928;-67
2023/01/21 06:00:08;;;;;;;;;;;;;;;0.07;81.10;101546.67;104925;1288;68053;-67
2023/01/21 06:02:54;;;;;;;;;;;;;;;0.09;81.11;101547.45;104937;1288;71400;-67
2023/01/21 06:05:43;;;;;;;;;;;;;;;0.10;81.13;101548.35;104972;1288;61384;-67
2023/01/21 06:08:29;;;;;;;;;;;;;;;0.13;81.17;101551.17;104997;1288;61052;-67
2023/01/21 06:11:15;;;;;;;;;;;;;;;0.15;81.10;101548.36;104792;1289;74959;-67
2023/01/21 06:14:01;;;;;;;;;;;;;;;0.16;81.15;101550.96;104893;1292;67258;-67
2023/01/21 06:16:47;;;;;;;;;;;;;;;0.18;81.19;101549.84;104907;1288;71286;-67
2023/01/21 06:19:33;;;;;;;;;;;;;;;0.19;81.15;101546.67;104912;1288;61310;-67
2023/01/21 06:22:19;;;;;;;;;;;;;;;0.21;81.21;101545.73;104936;1287;61353;-67
2023/01/21 06:25:06;;;;;;;;;;;;;;;0.22;81.15;101543.91;104913;1289;75925;-67
2023/01/21 06:27:55;;;;;;;;;;;;;;;0.24;81.18;101545.16;104892;1288;71526;-67
2023/01/21 06:30:41;;;;;;;;;;;;;;;0.25;81.21;101544.55;104880;1288;71535;-67
2023/01/21 06:33:27;;;;;;;;;;;;;;;0.27;81.24;101541.23;104902;1288;61266;-67
2023/01/21 06:36:13;;;;;;;;;;;;;;;0.28;81.20;101541.45;104990;1288;61121;-67
2023/01/21 06:38:59;;;;;;;;;;;;;;;0.29;81.21;101545.75;104886;1288;73164;-67
2023/01/21 06:41:45;;;;;;;;;;;;;;;0.31;81.26;101538.70;104930;1291;67324;-67
2023/01/21 06:44:32;;;;;;;;;;;;;;;0.33;81.27;101535.38;104887;1291;71401;-67
2023/01/21 06:47:18;;;;;;;;;;;;;;;0.35;81.26;101540.18;104848;1289;61250;-67
2023/01/21 06:50:04;;;;;;;;;;;;;;;0.36;81.30;101537.16;104892;1288;61187;-67
2023/01/21 06:52:50;;;;;;;;;;;;;;;0.37;81.29;101535.88;104996;1288;74147;-67
2023/01/21 06:55:36;;;;;;;;;;;;;;;0.39;81.32;101539.15;104922;1287;67284;-67
2023/01/21 06:58:23;;;;;;;;;;;;;;;0.40;81.26;101539.90;104892;1288;74272;-68
2023/01/21 07:01:09;;;;;;;;;;;;;;;0.42;81.38;101537.60;104917;1292;61130;-67
2023/01/21 07:03:55;;;;;;;;;;;;;;;0.43;81.27;101539.00;104942;1291;61345;-67
2023/01/21 07:06:41;;;;;;;;;;;;;;;0.46;81.33;101538.25;104976;1288;73281;-67
2023/01/21 07:09:27;;;;;;;;;;;;;;;0.48;81.36;101530.88;105012;1291;68140;-67
2023/01/21 07:12:13;;;;;;;;;;;;;;;0.50;81.29;101528.93;104907;1291;72428;-68
2023/01/21 07:14:59;;;;;;;;;;;;;;;0.52;81.34;101524.09;104937;1288;61022;-67
2023/01/21 07:17:46;;;;;;;;;;;;;;;0.54;81.37;101525.52;104826;1287;61086;-68
2023/01/21 07:20:32;;;;;;;;;;;;;;;0.57;81.31;101527.13;104841;1288;78903;-68
2023/01/21 07:23:18;;;;;;;;;;;;;;;0.59;81.38;101522.45;104899;1288;69196;-67
2023/01/21 07:26:04;;;;;;;;;;;;;;;0.61;81.30;101520.69;104868;1289;73304;-67
2023/01/21 07:28:51;;;;;;;;;;;;;;;0.63;81.34;101520.94;104864;1288;61138;-68
2023/01/21 07:31:37;;;;;;;;;;;;;;;0.66;81.39;101517.15;104849;1288;63325;-68
2023/01/21 07:34:23;;;;;;;;;;;;;;;0.69;81.34;101518.94;104901;1287;73646;-68
2023/01/21 07:37:09;;;;;;;;;;;;;;;0.72;81.34;101513.46;104897;1289;67367;-68
2023/01/21 07:39:55;;;;;;;;;;;;;;;0.74;81.34;101507.45;104895;1288;71252;-67
2023/01/21 07:42:41;;;;;;;;;;;;;;;0.77;81.30;101511.79;104887;1288;59705;-68
2023/01/21 07:45:27;;;;;;;;;;;;;;;0.80;81.30;101508.66;104869;1288;61511;-68
2023/01/21 07:48:14;;;;;;;;;;;;;;;0.83;81.37;101507.61;104858;1288;73820;-68
2023/01/21 07:51:00;;;;;;;;;;;;;;;0.86;81.32;101509.08;104943;1288;71412;-67
2023/01/21 07:53:46;;;;;;;;;;;;;;;0.88;81.32;101503.04;104817;1288;71325;-68
2023/01/21 07:56:32;;;;;;;;;;;;;;;0.91;81.30;101505.69;104838;1288;61314;-67
2023/01/21 07:59:18;;;;;;;;;;;;;;;0.93;81.27;101500.88;104899;1289;61170;-67
2023/01/21 08:02:05;;;;;;;;;;;;;;;0.95;81.33;101498.57;104932;1286;76652;-67
2023/01/21 08:04:51;;;;;;;;;;;;;;;0.97;81.28;101497.96;104954;1288;67301;-67
2023/01/21 08:07:37;;;;;;;;;;;;;;;0.99;81.26;101494.81;104929;1288;71222;-67
2023/01/21 08:10:24;;;;;;;;;;;;;;;1.01;81.25;101493.85;104940;1288;61283;-68
2023/01/21 08:13:10;;;;;;;;;;;;;;;1.03;81.28;101490.02;104927;1287;61237;-67
2023/01/21 08:15:57;;;;;;;;;;;;;;;1.04;81.26;101489.70;104870;1288;73187;-68
2023/01/21 08:18:43;;;;;;;;;;;;;;;1.07;81.24;101497.60;104866;1291;68015;-68
2023/01/21 08:21:29;;;;;;;;;;;;;;;1.09;81.29;101498.36;104816;1291;71406;-68
2023/01/21 08:24:15;;;;;;;;;;;;;;;1.11;81.27;101493.36;104859;1288;61220;-68
2023/01/21 08:27:01;;;;;;;;;;;;;;;1.13;81.30;101486.14;104817;1291;61144;-67
2023/01/21 08:29:47;;;;;;;;;;;;;;;1.16;81.25;101490.46;104793;1288;73171;-68
2023/01/21 08:32:33;;;;;;;;;;;;;;;1.17;81.33;101495.11;104935;1287;69029;-68
2023/01/21 08:35:20;;;;;;;;;;;;;;;1.19;81.30;101495.00;104841;1288;72825;-69
2023/01/21 08:38:06;;;;;;;;;;;;;;;1.20;81.23;101491.99;104903;1287;61296;-69
2023/01/21 08:40:52;;;;;;;;;;;;;;;1.21;81.25;101485.23;104976;1287;61133;-69
2023/01/21 08:43:39;;;;;;;;;;;;;;;1.23;81.29;101488.19;106298;1288;72425;-69
2023/01/21 08:46:25;;;;;;;;;;;;;;;1.24;81.29;101484.16;106065;1288;68036;-69
2023/01/21 08:49:11;;;;;;;;;;;;;;;1.26;81.33;101485.58;104817;1291;71972;-69
2023/01/21 08:51:57;;;;;;;;;;;;;;;1.27;81.27;101485.27;104834;1288;62296;-69
2023/01/21 08:54:43;;;;;;;;;;;;;;;1.27;81.33;101471.02;104879;1288;61118;-69
2023/01/21 08:57:29;;;;;;;;;;;;;;;1.28;81.36;101480.73;104879;1291;73271;-69
2023/01/21 09:00:16;;;;;;;;;;;;;;;1.28;81.34;101483.27;104916;1289;67271;-69
2023/01/21 09:03:02;;;;;;;;;;;;;;;1.27;81.36;101476.27;106263;1288;72851;-70
2023/01/21 09:05:50;;;;;;;;;;;;;;;1.27;81.37;101475.27;106245;1287;59676;-70
2023/01/21 09:08:36;;;;;;;;;;;;;;;1.28;81.37;101477.65;106299;1287;59254;-70
2023/01/21 09:11:22;;;;;;;;;;;;;;;1.26;81.37;101473.02;104967;1287;74052;-69
2023/01/21 09:14:09;;;;;;;;;;;;;;;1.25;81.42;101464.32;104881;1288;68084;-69
2023/01/21 09:16:55;;;;;;;;;;;;;;;1.23;81.54;101459.83;104864;1287;72343;-69
2023/01/21 09:19:41;;;;;;;;;;;;;;;1.19;81.58;101459.35;104923;1287;61473;-69
2023/01/21 09:22:27;;;;;;;;;;;;;;;1.14;81.59;101461.88;104870;1288;61609;-69
2023/01/21 09:25:13;;;;;;;;;;;;;;;1.08;81.65;101458.95;104892;1288;73109;-69
2023/01/21 09:27:59;;;;;;;;;;;;;;;1.04;81.75;101455.07;104909;1288;68977;-69
2023/01/21 09:30:46;;;;;;;;;;;;;;;0.99;81.77;101452.02;104893;1288;74004;-69
2023/01/21 09:33:33;;;;;;;;;;;;;;;0.94;81.77;101449.31;104921;1288;61353;-69
2023/01/21 09:36:21;;;;;;;;;;;;;;;0.91;81.79;101434.43;104916;1287;61156;-69
2023/01/21 09:39:07;;;;;;;;;;;;;;;0.88;81.88;101428.20;104903;1288;73752;-69
2023/01/21 09:41:55;;;;;;;;;;;;;;;0.85;81.92;101420.27;104975;1288;67558;-70
2023/01/21 09:44:43;;;;;;;;;;;;;;;0.81;81.97;101418.27;104829;1288;74021;-68
2023/01/21 09:47:36;;;;;;;;;;;;;;;0.78;81.99;101408.84;105980;1288;60422;-69
2023/01/21 09:50:23;;;;;;;;;;;;;;;0.76;82.09;101399.92;104803;1288;61267;-68
2023/01/21 09:53:33;;;;;;;;;;;;;;;0.75;82.03;101393.44;104911;1288;309309;-69
2023/01/21 09:56:22;;;;;;;;;;;;;;;0.74;82.04;101388.33;106215;1288;68308;-69
2023/01/21 09:59:18;;;;;;;;;;;;;;;0.74;82.09;101378.81;106134;1287;72980;-69
2023/01/21 10:02:06;;;;;;;;;;;;;;;0.75;82.07;101376.48;106134;1288;59106;-69
2023/01/21 10:05:00;;;;;;;;;;;;;;;0.75;82.02;101366.98;106040;1291;59268;-69
2023/01/21 10:07:57;;;;;;;;;;;;;;;0.77;82.18;101368.05;106200;1288;73292;-68
2023/01/21 10:10:55;;;;;;;;;;;;;;;0.80;82.27;101364.45;106088;1288;69183;-67
2023/01/21 10:13:41;;;;;;;;;;;;;;;0.82;82.21;101359.92;106163;1288;72223;-68
2023/01/21 10:16:36;;;;;;;;;;;;;;;0.84;82.21;101362.20;106135;1287;58644;-68
2023/01/21 10:19:28;;;;;;;;;;;;;;;0.86;82.18;101358.71;106176;1288;59769;-68
2023/01/21 10:22:16;;;;;;;;;;;;;;;0.88;82.16;101354.02;106199;1288;73554;-68
2023/01/21 10:25:05;;;;;;;;;;;;;;;0.88;82.26;101353.38;106170;1287;69040;-68
2023/01/21 10:27:52;;;;;;;;;;;;;;;0.88;82.10;101342.33;106208;1286;72265;-68
2023/01/21 10:30:38;;;;;;;;;;;;;;;0.88;82.21;101337.05;106140;1288;59771;-68
2023/01/21 10:33:25;;;;;;;;;;;;;;;0.87;82.34;101335.50;106195;1288;60189;-68
2023/01/21 10:36:11;;;;;;;;;;;;;;;0.88;82.39;101329.09;105227;1287;74468;-67
2023/01/21 10:39:03;;;;;;;;;;;;;;;0.88;82.38;101325.33;101290;1288;5173760;-67
2023/01/21 10:42:07;;;;;;;;;;;;;;;0.84;82.49;101314.86;106231;1289;71472;-68
2023/01/21 10:44:59;;;;;;;;;;;;;;;0.79;82.38;101316.20;106188;1288;59479;-68
2023/01/21 10:47:45;;;;;;;;;;;;;;;0.74;82.45;101312.98;106218;1287;60118;-68
2023/01/21 10:50:37;;;;;;;;;;;;;;;0.71;82.59;101309.48;106183;1286;74503;-68
2023/01/21 10:53:23;;;;;;;;;;;;;;;0.69;82.53;101304.13;106165;1287;68609;-68
2023/01/21 10:56:08;;;;;;;;;;;;;;;0.67;82.47;101301.37;106176;1288;71326;-68
2023/01/21 10:59:21;;;;;;;;;;;;;;;0.64;82.57;101304.84;105835;1287;58744;-68
2023/01/21 11:02:07;;;;;;;;;;;;;;;0.62;82.65;101311.70;104908;1288;64334;-67
2023/01/21 11:04:53;;;;;;;;;;;;;;;0.60;82.73;101314.02;104741;1289;75046;-67
2023/01/21 11:07:41;;;;;;;;;;;;;;;0.59;82.61;101320.44;104903;1287;66581;-69
2023/01/21 11:10:27;;;;;;;;;;;;;;;0.60;82.76;101325.37;104754;1291;72049;-68
2023/01/21 11:13:13;;;;;;;;;;;;;;;0.57;82.80;101326.30;104772;1288;61240;-68
2023/01/21 11:16:00;;;;;;;;;;;;;;;0.56;82.91;101334.40;104871;1287;59260;-68
2023/01/21 11:18:47;;;;;;;;;;;;;;;0.54;82.88;101338.73;104789;1289;74763;-68
2023/01/21 11:21:33;;;;;;;;;;;;;;;0.53;83.00;101338.67;104686;1288;67638;-68
2023/01/21 11:24:21;;;;;;;;;;;;;;;0.50;82.96;101339.48;104809;1288;72107;-68
2023/01/21 11:27:16;;;;;;;;;;;;;;;0.47;82.93;101340.04;104877;1288;61829;-68
2023/01/21 11:30:06;;;;;;;;;;;;;;;0.44;82.96;101341.09;104815;1287;61988;-68
2023/01/21 11:32:52;;;;;;;;;;;;;;;0.42;83.07;101338.14;106233;1288;73393;-69
2023/01/21 11:35:38;;;;;;;;;;;;;;;0.41;83.17;101338.77;106221;1288;67371;-70
2023/01/21 11:38:32;;;;;;;;;;;;;;;0.37;83.07;101337.10;106255;1287;71976;-69
2023/01/21 11:41:21;;;;;;;;;;;;;;;0.35;83.09;101335.36;106144;1287;59101;-70
2023/01/21 11:44:14;;;;;;;;;;;;;;;0.37;83.17;101335.42;106276;1288;59734;-70
2023/01/21 11:47:00;;;;;;;;;;;;;;;0.39;83.20;101335.98;106271;1288;74766;-70
2023/01/21 11:49:46;;;;;;;;;;;;;;;0.41;83.26;101331.17;106287;1287;67412;-70
2023/01/21 11:52:32;;;;;;;;;;;;;;;0.43;83.23;101334.43;106252;1288;70391;-69
2023/01/21 11:55:20;;;;;;;;;;;;;;;0.43;83.19;101332.95;106203;1288;58919;-69
2023/01/21 11:58:14;;;;;;;;;;;;;;;0.45;83.36;101335.36;106294;1288;59979;-69
2023/01/21 12:01:01;;;;;;;;;;;;;;;0.46;83.39;101336.09;106258;1288;73414;-69
2023/01/21 12:03:51;;;;;;;;;;;;;;;0.48;83.40;101335.83;106099;1288;67440;-69
2023/01/21 12:06:43;;;;;;;;;;;;;;;0.49;83.42;101333.50;106196;1288;71239;-69
2023/01/21 12:09:30;;;;;;;;;;;;;;;0.51;83.32;101328.98;106214;1287;59067;-69
2023/01/21 12:12:15;;;;;;;;;;;;;;;0.53;83.41;101325.62;106154;1288;59756;-69
2023/01/21 12:15:12;;;;;;;;;;;;;;;0.54;83.37;101327.86;106235;1287;72407;-70
2023/01/21 12:17:58;;;;;;;;;;;;;;;0.53;83.50;101327.83;106206;1288;67556;-70
2023/01/21 12:20:50;;;;;;;;;;;;;;;0.53;83.49;101324.63;106145;1288;71288;-70
2023/01/21 12:23:54;;;;;;;;;;;;;;;0.55;83.34;101321.45;106180;1288;59048;-78
2023/01/21 12:26:44;;;;;;;;;;;;;;;0.55;83.51;101324.16;106053;1288;59330;-70
2023/01/21 12:29:50;;;;;;;;;;;;;;;0.55;83.71;101324.00;106138;1288;73547;-69
2023/01/21 12:32:45;;;;;;;;;;;;;;;0.54;83.60;101323.48;105940;1288;69964;-70
2023/01/21 12:35:44;;;;;;;;;;;;;;;0.55;83.69;101323.17;106141;1289;72325;-70
2023/01/21 12:38:33;;;;;;;;;;;;;;;0.55;83.72;101319.27;106118;1291;59330;-70
2023/01/21 12:41:29;;;;;;;;;;;;;;;0.54;83.65;101318.55;106233;1288;60042;-70
2023/01/21 12:44:34;;;;;;;;;;;;;;;0.55;83.62;101313.14;106083;1289;74901;-70
2023/01/21 12:47:23;;;;;;;;;;;;;;;0.56;83.75;101317.27;106188;1288;68281;-70
2023/01/21 12:50:20;;;;;;;;;;;;;;;0.57;83.74;101314.09;106027;1287;72363;-70
2023/01/21 12:53:09;;;;;;;;;;;;;;;0.58;83.91;101320.22;106134;1287;59153;-70
2023/01/21 12:55:59;;;;;;;;;;;;;;;0.57;83.78;101319.67;106134;1288;59660;-73
2023/01/21 12:59:07;;;;;;;;;;;;;;;0.57;83.87;101319.84;106186;1288;74583;-72
2023/01/21 13:01:59;;;;;;;;;;;;;;;0.55;83.88;101327.23;106005;1288;68637;-73
2023/01/21 13:04:54;;;;;;;;;;;;;;;0.55;83.96;101328.92;105986;1289;71886;-73
2023/01/21 13:07:40;;;;;;;;;;;;;;;0.56;83.97;101329.81;106135;1288;59522;-73
2023/01/21 13:10:37;;;;;;;;;;;;;;;0.56;83.97;101328.29;106210;1288;59316;-73
2023/01/21 13:13:33;;;;;;;;;;;;;;;0.58;84.03;101330.20;106168;1286;73440;-73
2023/01/21 13:16:21;;;;;;;;;;;;;;;0.60;84.01;101329.60;106175;1287;68929;-73
2023/01/21 13:19:08;;;;;;;;;;;;;;;0.61;84.03;101333.39;106053;1288;72682;-74
2023/01/21 13:21:55;;;;;;;;;;;;;;;0.61;84.01;101336.11;106102;1288;59405;-73
2023/01/21 13:25:00;;;;;;;;;;;;;;;0.61;84.13;101334.23;106123;1288;59500;-74
2023/01/21 13:28:02;;;;;;;;;;;;;;;0.59;84.07;101339.75;106161;1288;75330;-74
2023/01/21 13:30:47;;;;;;;;;;;;;;;0.52;83.98;101341.21;106187;1287;67462;-74
2023/01/21 13:33:46;;;;;;;;;;;;;;;0.52;84.13;101341.55;106125;1287;72377;-73
2023/01/21 13:36:47;;;;;;;;;;;;;;;0.53;84.17;101344.64;106005;1289;59327;-71
2023/01/21 13:39:52;;;;;;;;;;;;;;;0.54;84.18;101339.07;106170;1291;58961;-72
2023/01/21 13:42:41;;;;;;;;;;;;;;;0.54;84.22;101345.18;106218;1287;74086;-73
2023/01/21 13:45:35;;;;;;;;;;;;;;;0.55;84.48;101344.02;106204;1288;67319;-73
2023/01/21 13:48:50;;;;;;;;;;;;;;;0.56;84.32;101343.02;106012;1288;72348;-73
2023/01/21 13:51:55;;;;;;;;;;;;;;;0.58;84.25;101347.52;105691;1293;59526;-74
2023/01/21 13:54:59;;;;;;;;;;;;;;;0.59;84.41;101350.45;105669;1295;60019;-74
2023/01/21 13:57:58;;;;;;;;;;;;;;;0.60;84.34;101351.34;105736;1291;75365;-74
2023/01/21 14:00:48;;;;;;;;;;;;;;;0.61;84.43;101353.24;105696;1293;67912;-73
2023/01/21 14:03:54;;;;;;;;;;;;;;;0.59;84.31;101354.52;105715;1292;71917;-74
2023/01/21 14:06:43;;;;;;;;;;;;;;;0.59;84.27;101358.23;105238;1299;59516;-74
2023/01/21 14:09:41;;;;;;;;;;;;;;;0.58;84.32;101359.05;105288;1299;58341;-74
2023/01/21 14:12:33;;;;;;;;;;;;;;;0.58;84.36;101356.00;105315;1300;72398;-74
2023/01/21 14:15:22;;;;;;;;;;;;;;;0.58;84.40;101359.23;105238;1300;67620;-74
2023/01/21 14:18:27;;;;;;;;;;;;;;;0.57;84.53;101362.77;105263;1298;72469;-74
2023/01/21 14:21:22;;;;;;;;;;;;;;;0.58;84.39;101363.98;105246;1300;59708;-74
2023/01/21 14:24:18;;;;;;;;;;;;;;;0.58;84.48;101362.98;105270;1299;59042;-74
2023/01/21 14:27:22;;;;;;;;;;;;;;;0.60;84.53;101363.70;105238;1299;72440;-74
2023/01/21 14:30:14;;;;;;;;;;;;;;;0.59;84.63;101367.76;105565;1295;68937;-73